Time;durP1;ratioP1;P1;durP2;ratioP2;P2;SDS_P1;SDS_P2;PMS_P1;PMS_P2;Temp;Humidity;BMP_temperature;BMP_pressure;BME280_temperature;BME280_humidity;BME280_pressure;Samples;Min_cycle;Max_cycle;Signal;HPM_P1;HPM_P2
2023/05/11 00:00:24;;;;;;;1.63;1.53;;;9.10;99.90;;;;;;476334;246;28084;-83
2023/05/11 00:02:25;;;;;;;1.93;1.60;;;9.20;99.90;;;;;;470132;249;27999;-82
2023/05/11 00:04:26;;;;;;;1.53;1.30;;;9.20;99.90;;;;;;478246;249;28028;-82
2023/05/11 00:06:27;;;;;;;2.27;1.73;;;9.30;99.90;;;;;;478307;249;28507;-83
2023/05/11 00:08:35;;;;;;;2.30;1.23;;;9.30;99.90;;;;;;478165;249;28083;-82
2023/05/11 00:10:36;;;;;;;2.87;1.60;;;9.20;99.90;;;;;;478168;249;28093;-86
2023/05/11 00:12:37;;;;;;;1.80;1.70;;;9.20;99.90;;;;;;478222;249;27898;-84
2023/05/11 00:14:39;;;;;;;2.97;1.43;;;9.20;99.90;;;;;;480200;239;27963;-81
2023/05/11 00:16:40;;;;;;;1.73;1.63;;;9.10;99.90;;;;;;479678;244;28169;-82
2023/05/11 00:18:42;;;;;;;1.60;1.50;;;9.10;99.90;;;;;;476877;249;27762;-84
2023/05/11 00:20:43;;;;;;;2.80;1.70;;;9.20;99.90;;;;;;476788;250;27874;-82
2023/05/11 00:25:01;;;;;;;1.50;1.40;;;9.00;99.90;;;;;;491461;241;27919;-82
2023/05/11 00:27:03;;;;;;;1.67;1.57;;;9.10;99.90;;;;;;483466;246;28025;-82
2023/05/11 00:29:04;;;;;;;1.43;1.33;;;9.10;99.90;;;;;;486501;245;28006;-82
2023/05/11 00:31:05;;;;;;;1.60;1.50;;;9.10;99.90;;;;;;486499;245;27515;-82
2023/05/11 00:33:06;;;;;;;2.57;1.53;;;9.20;99.90;;;;;;486478;245;27747;-81
2023/05/11 00:35:07;;;;;;;1.37;1.30;;;9.20;99.90;;;;;;486570;245;27602;-84
2023/05/11 00:37:09;;;;;;;2.17;1.70;;;9.20;99.90;;;;;;486546;245;27853;-83
2023/05/11 00:39:11;;;;;;;2.77;1.60;;;9.20;99.90;;;;;;486429;245;27666;-86
2023/05/11 00:41:11;;;;;;;1.80;1.70;;;9.20;99.90;;;;;;486448;242;27855;-83
2023/05/11 00:43:12;;;;;;;1.50;1.40;;;9.20;99.90;;;;;;486502;245;27998;-82
2023/05/11 00:45:15;;;;;;;1.43;1.33;;;9.10;99.90;;;;;;486488;244;27596;-82
2023/05/11 00:47:16;;;;;;;1.60;1.50;;;9.20;99.90;;;;;;486500;245;27907;-82
2023/05/11 00:49:20;;;;;;;2.57;1.50;;;9.10;99.90;;;;;;486546;242;28379;-81
2023/05/11 00:51:19;;;;;;;2.00;1.90;;;9.10;99.90;;;;;;486303;245;28162;-86
2023/05/11 00:53:20;;;;;;;2.27;1.80;;;9.10;99.90;;;;;;486705;245;27750;-81
2023/05/11 00:55:21;;;;;;;2.07;1.97;;;9.00;99.90;;;;;;486399;245;27907;-82
2023/05/11 00:57:22;;;;;;;2.37;1.80;;;8.90;99.90;;;;;;486537;245;27894;-83
2023/05/11 00:59:24;;;;;;;1.53;1.43;;;8.80;99.90;;;;;;485378;243;27829;-83
2023/05/11 01:01:25;;;;;;;1.50;1.40;;;8.90;99.90;;;;;;489175;243;27463;-82
2023/05/11 01:03:26;;;;;;;4.70;1.87;;;8.90;99.90;;;;;;485204;245;27608;-85
2023/05/11 01:07:38;;;;;;;1.80;1.70;;;9.00;99.90;;;;;;494790;237;27838;-83
2023/05/11 01:09:39;;;;;;;3.00;1.47;;;8.90;99.90;;;;;;493418;242;27937;-82
2023/05/11 01:11:40;;;;;;;1.67;1.57;;;9.00;99.90;;;;;;493406;242;28024;-82
2023/05/11 01:13:41;;;;;;;1.80;1.70;;;9.00;99.90;;;;;;493325;240;27953;-83
2023/05/11 01:15:43;;;;;;;1.87;1.70;;;8.90;99.90;;;;;;493266;242;27599;-84
2023/05/11 01:17:44;;;;;;;4.80;1.80;;;8.90;99.90;;;;;;493431;242;28082;-80
2023/05/11 01:19:45;;;;;;;3.10;1.63;;;8.90;99.90;;;;;;493353;242;27515;-81
2023/05/11 01:21:46;;;;;;;4.67;2.10;;;8.90;99.90;;;;;;493161;242;27947;-83
2023/05/11 01:23:48;;;;;;;2.07;1.87;;;9.00;99.90;;;;;;493298;242;27854;-80
2023/05/11 01:25:49;;;;;;;4.23;1.80;;;9.00;99.90;;;;;;493202;242;27980;-82
2023/05/11 01:27:50;;;;;;;1.80;1.70;;;9.00;99.90;;;;;;493374;242;27911;-83
2023/05/11 01:29:51;;;;;;;2.10;1.90;;;9.00;99.90;;;;;;493336;242;27830;-84
2023/05/11 01:31:53;;;;;;;2.07;1.87;;;9.00;99.90;;;;;;493261;242;27603;-81
2023/05/11 01:33:54;;;;;;;2.03;1.80;;;9.00;99.90;;;;;;493464;242;27923;-83
2023/05/11 01:35:55;;;;;;;2.60;1.93;;;9.00;99.90;;;;;;493304;242;27901;-84
2023/05/11 01:37:56;;;;;;;4.97;1.70;;;8.90;99.90;;;;;;493437;242;27786;-82
2023/05/11 01:39:58;;;;;;;2.53;2.33;;;9.00;99.90;;;;;;493357;242;27804;-81
2023/05/11 01:41:59;;;;;;;2.20;1.97;;;8.90;99.90;;;;;;493300;242;27936;-83
2023/05/11 01:44:00;;;;;;;2.50;2.30;;;8.80;99.90;;;;;;493303;242;28029;-81
2023/05/11 01:46:01;;;;;;;2.30;2.10;;;8.80;99.90;;;;;;493235;242;28024;-84
2023/05/11 01:48:03;;;;;;;2.97;2.67;;;8.90;99.90;;;;;;493302;242;27930;-82
2023/05/11 01:50:04;;;;;;;3.60;3.30;;;9.00;99.90;;;;;;493050;242;27949;-81
2023/05/11 01:52:05;;;;;;;2.97;2.77;;;9.00;99.90;;;;;;493348;242;27857;-82
2023/05/11 01:54:06;;;;;;;3.70;3.40;;;9.00;99.90;;;;;;493201;242;27924;-80
2023/05/11 01:56:08;;;;;;;4.67;3.80;;;9.10;99.90;;;;;;493228;240;28112;-81
2023/05/11 01:58:09;;;;;;;5.37;4.87;;;9.20;99.90;;;;;;493282;242;27701;-83
2023/05/11 02:00:10;;;;;;;8.13;6.93;;;9.30;99.90;;;;;;493230;242;27815;-83
2023/05/11 02:02:11;;;;;;;9.67;8.87;;;9.30;99.90;;;;;;493291;242;27812;-80
2023/05/11 02:04:13;;;;;;;9.37;8.47;;;9.40;99.90;;;;;;493317;242;27963;-80
2023/05/11 02:06:14;;;;;;;9.70;6.83;;;9.40;99.90;;;;;;493259;242;28004;-85
2023/05/11 02:08:15;;;;;;;7.57;5.80;;;9.50;99.90;;;;;;493087;242;27853;-81
2023/05/11 02:10:16;;;;;;;8.57;6.47;;;9.50;99.90;;;;;;491097;242;27721;-81
2023/05/11 02:12:18;;;;;;;13.53;8.30;;;9.40;99.90;;;;;;491296;242;27776;-82
2023/05/11 02:14:19;;;;;;;9.90;6.80;;;9.50;99.90;;;;;;484368;235;27845;-81
2023/05/11 02:16:20;;;;;;;9.63;7.03;;;9.60;99.90;;;;;;470005;247;28028;-82
2023/05/11 02:20:51;;;;;;;13.90;7.80;;;9.70;99.90;;;;;;477979;237;27971;-82
2023/05/11 02:22:53;;;;;;;11.37;9.00;;;9.70;99.90;;;;;;470971;252;27817;-83
2023/05/11 02:24:54;;;;;;;11.63;8.67;;;9.60;99.90;;;;;;470836;253;27964;-82
2023/05/11 02:29:06;;;;;;;12.43;8.23;;;9.70;99.90;;;;;;477742;248;28323;-83
2023/05/11 02:31:07;;;;;;;16.03;8.93;;;9.70;99.90;;;;;;477674;249;27786;-83
2023/05/11 02:33:08;;;;;;;12.60;9.20;;;9.70;99.90;;;;;;477639;248;27871;-83
2023/05/11 02:35:09;;;;;;;12.50;8.80;;;9.70;99.90;;;;;;477697;245;28643;-81
2023/05/11 02:37:11;;;;;;;14.87;11.00;;;9.70;99.90;;;;;;477693;249;28318;-82
2023/05/11 02:39:12;;;;;;;12.10;9.23;;;9.70;99.90;;;;;;477714;245;27887;-83
2023/05/11 02:41:13;;;;;;;11.87;9.03;;;9.80;99.90;;;;;;477731;248;27806;-83
2023/05/11 02:43:14;;;;;;;14.13;10.03;;;9.80;99.90;;;;;;477792;245;27924;-82
2023/05/11 02:45:16;;;;;;;18.13;12.33;;;9.80;99.90;;;;;;477785;245;27849;-86
2023/05/11 02:47:17;;;;;;;14.90;10.73;;;9.80;99.90;;;;;;477621;245;27898;-83
2023/05/11 02:49:18;;;;;;;15.83;10.20;;;9.80;99.90;;;;;;477825;249;28124;-82
2023/05/11 02:51:19;;;;;;;14.10;9.20;;;9.80;99.90;;;;;;477786;245;27922;-84
2023/05/11 02:55:31;;;;;;;18.13;11.37;;;9.70;99.90;;;;;;470913;249;28409;-84
2023/05/11 02:57:32;;;;;;;17.27;11.30;;;9.70;99.90;;;;;;485965;235;27679;-85
2023/05/11 02:59:33;;;;;;;16.07;11.40;;;9.60;99.90;;;;;;492701;233;27941;-83
2023/05/11 03:01:35;;;;;;;17.33;11.57;;;9.60;99.90;;;;;;492523;234;28531;-82
2023/05/11 03:03:36;;;;;;;17.90;11.73;;;9.70;99.90;;;;;;492921;241;27817;-82
2023/05/11 03:05:37;;;;;;;18.53;11.53;;;9.80;99.90;;;;;;492724;241;27961;-87
2023/05/11 03:07:38;;;;;;;13.00;10.00;;;9.80;99.90;;;;;;492666;241;27938;-84
2023/05/11 03:09:40;;;;;;;17.83;12.23;;;9.80;99.90;;;;;;492832;242;27946;-83
2023/05/11 03:11:41;;;;;;;18.43;12.30;;;9.80;99.90;;;;;;492714;240;27805;-82
2023/05/11 03:13:42;;;;;;;19.40;13.03;;;9.80;99.90;;;;;;492778;241;27979;-82
2023/05/11 03:15:43;;;;;;;15.77;11.97;;;9.70;99.90;;;;;;492665;240;27970;-83
2023/05/11 03:17:45;;;;;;;19.27;13.30;;;9.80;99.90;;;;;;492681;240;28039;-83
2023/05/11 03:19:46;;;;;;;17.23;13.20;;;9.80;99.90;;;;;;492495;234;27746;-83
2023/05/11 03:21:47;;;;;;;15.67;10.70;;;9.70;99.90;;;;;;492461;241;27924;-81
2023/05/11 03:23:48;;;;;;;16.20;12.23;;;9.70;99.90;;;;;;492852;239;27713;-81
2023/05/11 03:28:01;;;;;;;16.47;11.10;;;9.70;99.90;;;;;;478720;242;28044;-82
2023/05/11 03:32:13;;;;;;;17.13;11.23;;;9.70;99.90;;;;;;475278;236;28170;-82
2023/05/11 03:34:14;;;;;;;16.57;11.70;;;9.70;99.90;;;;;;473338;244;28016;-83
2023/05/11 03:36:15;;;;;;;17.83;11.40;;;9.70;99.90;;;;;;472266;249;28087;-82
2023/05/11 03:38:16;;;;;;;16.20;12.40;;;9.70;99.90;;;;;;472278;249;28159;-81
2023/05/11 03:42:28;;;;;;;14.50;11.30;;;9.70;99.90;;;;;;472491;252;28002;-82
2023/05/11 03:44:29;;;;;;;16.03;11.77;;;9.70;99.90;;;;;;472184;248;28261;-84
2023/05/11 03:46:34;;;;;;;20.50;13.43;;;9.80;99.90;;;;;;472307;252;27875;-82
2023/05/11 03:48:35;;;;;;;18.80;12.33;;;9.70;99.90;;;;;;476747;241;28124;-82
2023/05/11 03:50:36;;;;;;;20.67;13.67;;;9.70;99.90;;;;;;477805;249;28111;-81
2023/05/11 03:52:43;;;;;;;17.23;12.43;;;9.70;99.90;;;;;;477973;249;27953;-81
2023/05/11 03:54:44;;;;;;;17.17;11.50;;;9.70;99.90;;;;;;483780;244;27977;-82
2023/05/11 03:59:02;;;;;;;17.77;13.77;;;9.70;99.90;;;;;;484672;240;28388;-80
2023/05/11 04:03:20;;;;;;;16.40;11.60;;;9.80;99.90;;;;;;490002;238;27922;-83
2023/05/11 04:05:21;;;;;;;16.03;12.03;;;9.70;99.90;;;;;;495635;240;27973;-81
2023/05/11 04:07:23;;;;;;;16.97;13.47;;;9.70;99.90;;;;;;485722;237;27897;-83
2023/05/11 04:09:24;;;;;;;17.87;13.20;;;9.70;99.90;;;;;;480475;242;27880;-83
2023/05/11 04:11:26;;;;;;;46.77;14.37;;;9.70;99.90;;;;;;483765;236;27943;-79
2023/05/11 04:13:26;;;;;;;18.07;13.30;;;9.80;99.90;;;;;;479735;246;27937;-82
2023/05/11 04:15:28;;;;;;;21.43;13.47;;;9.80;99.90;;;;;;499128;236;27973;-81
2023/05/11 04:22:15;;;;;;;17.57;14.20;;;9.70;99.90;;;;;;488520;238;27796;-83
2023/05/11 04:24:17;;;;;;;20.50;14.60;;;9.80;99.90;;;;;;488432;240;28036;-81
2023/05/11 04:28:28;;;;;;;23.33;15.43;;;9.80;99.90;;;;;;488841;235;27969;-84
2023/05/11 04:30:29;;;;;;;17.97;14.53;;;9.80;99.90;;;;;;489007;238;27845;-83
2023/05/11 04:32:31;;;;;;;20.40;14.80;;;9.90;99.90;;;;;;495207;239;27884;-84
2023/05/11 04:34:34;;;;;;;20.40;15.30;;;9.90;99.90;;;;;;495028;236;27936;-81
2023/05/11 04:36:35;;;;;;;18.27;14.57;;;9.80;99.90;;;;;;488004;239;28110;-81
2023/05/11 04:38:36;;;;;;;17.30;13.37;;;9.80;99.90;;;;;;468321;248;27932;-81
2023/05/11 04:40:38;;;;;;;15.03;13.10;;;9.80;99.90;;;;;;468567;248;27788;-83
2023/05/11 04:42:39;;;;;;;19.03;14.90;;;9.80;99.90;;;;;;468416;248;28193;-82
2023/05/11 04:44:40;;;;;;;18.50;13.60;;;9.80;99.90;;;;;;468548;250;27837;-84
2023/05/11 04:57:53;;;;;;;20.67;15.60;;;9.70;99.90;;;;;;489367;240;27883;-83
2023/05/11 04:59:54;;;;;;;17.47;13.30;;;9.80;99.90;;;;;;490043;243;27895;-85
2023/05/11 05:02:01;;;;;;;21.03;15.10;;;9.80;99.90;;;;;;490079;243;27619;-83
2023/05/11 05:04:02;;;;;;;16.67;13.20;;;9.80;99.90;;;;;;487808;240;27965;-82
2023/05/11 05:06:06;;;;;;;18.83;14.27;;;9.80;99.90;;;;;;484855;234;27989;-85
2023/05/11 05:08:14;;;;;;;16.87;13.27;;;9.80;99.90;;;;;;479382;240;27980;-82
2023/05/11 05:10:15;;;;;;;18.50;14.27;;;9.80;99.90;;;;;;477448;237;27848;-82
2023/05/11 05:12:16;;;;;;;18.03;13.83;;;9.80;99.90;;;;;;477348;241;27820;-81
2023/05/11 05:14:20;;;;;;;15.30;11.93;;;9.80;99.90;;;;;;482284;238;27955;-85
2023/05/11 05:16:24;;;;;;;14.27;11.13;;;9.80;99.90;;;;;;486951;243;27640;-85
2023/05/11 05:18:28;;;;;;;12.70;9.00;;;9.90;99.90;;;;;;494072;236;28581;-83
2023/05/11 05:20:29;;;;;;;13.13;10.33;;;9.90;99.90;;;;;;486843;232;28077;-82
2023/05/11 05:24:47;;;;;;;13.50;10.77;;;9.90;99.90;;;;;;471981;250;28235;-81
2023/05/11 05:26:48;;;;;;;12.40;9.33;;;9.90;99.90;;;;;;474707;250;27849;-81
2023/05/11 05:31:00;;;;;;;14.90;10.23;;;10.00;99.90;;;;;;476628;239;28179;-84
2023/05/11 05:33:01;;;;;;;12.10;9.00;;;9.90;99.90;;;;;;479591;239;28078;-82
2023/05/11 05:35:02;;;;;;;17.03;10.50;;;9.90;99.90;;;;;;492967;241;27849;-82
2023/05/11 05:43:40;;;;;;;13.60;9.43;;;10.00;99.90;;;;;;470151;239;28000;-84
2023/05/11 05:45:42;;;;;;;12.20;9.73;;;10.00;99.90;;;;;;456603;245;27887;-81
2023/05/11 05:47:43;;;;;;;13.60;10.00;;;10.00;99.90;;;;;;456463;257;28038;-82
2023/05/11 05:49:44;;;;;;;12.57;9.70;;;10.10;99.90;;;;;;456486;244;27995;-82
2023/05/11 05:56:16;;;;;;;12.60;9.10;;;10.20;99.90;;;;;;474798;236;28093;-82
2023/05/11 05:58:17;;;;;;;11.70;8.70;;;10.10;99.90;;;;;;455276;261;27979;-82
2023/05/11 06:00:18;;;;;;;12.23;9.03;;;10.20;99.90;;;;;;458538;258;28129;-82
2023/05/11 06:06:54;;;;;;;11.60;8.77;;;10.40;99.90;;;;;;488491;237;28152;-80
2023/05/11 06:08:54;;;;;;;10.90;8.27;;;10.50;99.90;;;;;;488612;244;27820;-80
2023/05/11 06:32:47;;;;;;;11.67;7.60;;;11.10;99.90;;;;;;477047;238;28220;-87
2023/05/11 06:34:49;;;;;;;11.70;8.23;;;11.10;99.90;;;;;;479956;236;28282;-84
2023/05/11 06:36:50;;;;;;;11.97;7.70;;;11.20;99.90;;;;;;481065;233;28844;-84
2023/05/11 06:38:51;;;;;;;11.63;7.87;;;11.10;99.90;;;;;;485597;235;28211;-87
2023/05/11 06:55:44;;;;;;;10.53;6.90;;;11.10;99.90;;;;;;490710;235;28190;-82
2023/05/11 06:57:45;;;;;;;10.70;7.40;;;11.10;99.90;;;;;;476764;237;28421;-84
2023/05/11 07:06:07;;;;;;;11.80;8.03;;;11.20;99.90;;;;;;477736;236;28173;-86
2023/05/11 07:10:25;;;;;;;8.40;6.60;;;11.30;99.90;;;;;;482446;234;28061;-84
2023/05/11 07:23:05;;;;;;;8.40;6.50;;;11.80;99.90;;;;;;480700;234;28229;-85
2023/05/11 07:25:08;;;;;;;10.33;7.00;;;12.00;99.90;;;;;;481984;240;28334;-82
2023/05/11 07:27:07;;;;;;;9.87;7.10;;;12.20;99.90;;;;;;486563;243;28029;-82
2023/05/11 07:29:09;;;;;;;10.13;6.60;;;12.30;99.90;;;;;;486646;245;28264;-83
2023/05/11 07:31:10;;;;;;;10.73;6.97;;;12.30;99.90;;;;;;482022;242;28039;-82
2023/05/11 07:33:11;;;;;;;7.50;6.37;;;12.20;99.90;;;;;;485061;240;28736;-84
2023/05/11 07:35:14;;;;;;;6.30;5.30;;;12.20;99.90;;;;;;481308;240;28395;-85
2023/05/11 07:37:14;;;;;;;6.77;5.17;;;12.20;99.90;;;;;;472366;248;29020;-83
2023/05/11 07:39:15;;;;;;;8.70;6.43;;;12.30;99.90;;;;;;473002;251;28854;-82
2023/05/11 07:41:17;;;;;;;5.70;4.90;;;12.30;99.90;;;;;;478004;240;28387;-85
2023/05/11 07:45:24;;;;;;;5.20;4.43;;;12.50;99.90;;;;;;478671;249;28273;-87
2023/05/11 07:47:25;;;;;;;8.30;5.93;;;12.60;99.90;;;;;;479976;243;28124;-86
2023/05/11 07:49:26;;;;;;;5.30;4.67;;;12.60;99.90;;;;;;473018;248;28276;-86
2023/05/11 07:51:34;;;;;;;6.40;4.30;;;;;;;;;;473149;248;28414;-86
2023/05/11 07:53:35;;;;;;;5.43;4.43;;;12.70;99.90;;;;;;473017;236;26695;-85
2023/05/11 07:55:36;;;;;;;4.33;3.93;;;12.80;99.90;;;;;;467856;255;28055;-85
2023/05/11 07:57:38;;;;;;;3.93;3.57;;;13.00;99.90;;;;;;477702;237;28235;-86
2023/05/11 07:59:39;;;;;;;4.87;3.67;;;13.10;99.90;;;;;;484903;239;28780;-87
2023/05/11 08:01:40;;;;;;;5.30;3.00;;;13.20;99.90;;;;;;483156;244;28392;-87
2023/05/11 08:03:41;;;;;;;3.60;3.30;;;12.90;99.90;;;;;;476922;240;28568;-83
2023/05/11 08:05:43;;;;;;;5.67;3.13;;;12.70;99.90;;;;;;477705;240;28742;-83
2023/05/11 08:07:44;;;;;;;2.90;2.57;;;12.80;99.90;;;;;;482423;241;28347;-87
2023/05/11 08:09:45;;;;;;;3.40;2.50;;;12.90;99.90;;;;;;492050;241;28613;-86
2023/05/11 08:11:46;;;;;;;2.80;2.60;;;13.00;99.90;;;;;;491997;241;28238;-87
2023/05/11 08:13:48;;;;;;;4.50;3.30;;;13.10;99.90;;;;;;491958;241;29281;-85
2023/05/11 08:15:49;;;;;;;5.93;3.37;;;13.30;99.90;;;;;;492056;240;28923;-85
2023/05/11 08:17:50;;;;;;;4.57;3.70;;;13.40;99.90;;;;;;492028;241;29342;-86
2023/05/11 08:19:51;;;;;;;4.40;3.60;;;13.60;99.90;;;;;;492018;241;28828;-86
2023/05/11 08:21:53;;;;;;;3.30;3.00;;;13.40;99.90;;;;;;492024;241;28903;-86
2023/05/11 08:23:54;;;;;;;6.90;3.97;;;13.50;99.90;;;;;;492002;241;28871;-86
2023/05/11 08:25:55;;;;;;;4.10;3.40;;;13.70;99.90;;;;;;492003;241;28849;-86
2023/05/11 08:27:56;;;;;;;3.60;2.93;;;13.50;99.90;;;;;;492024;240;29002;-87
2023/05/11 08:29:58;;;;;;;4.50;3.63;;;13.40;99.90;;;;;;492064;241;29550;-86
2023/05/11 08:31:59;;;;;;;5.87;3.37;;;13.40;99.90;;;;;;491990;241;30013;-85
2023/05/11 08:34:00;;;;;;;5.90;3.50;;;13.40;99.90;;;;;;492110;241;29632;-83
2023/05/11 08:36:02;;;;;;;3.80;3.30;;;13.60;99.90;;;;;;491993;241;28875;-86
2023/05/11 08:38:03;;;;;;;3.63;2.97;;;13.60;99.90;;;;;;492042;241;28961;-86
2023/05/11 08:40:04;;;;;;;4.60;2.93;;;13.60;99.90;;;;;;492173;241;28840;-85
2023/05/11 08:42:06;;;;;;;3.70;2.90;;;13.60;99.90;;;;;;492040;241;28931;-86
2023/05/11 08:44:06;;;;;;;3.40;2.57;;;13.70;99.90;;;;;;492015;240;28658;-86
2023/05/11 08:46:08;;;;;;;3.83;2.40;;;13.90;99.90;;;;;;492180;241;28849;-85
2023/05/11 08:48:09;;;;;;;5.83;2.40;;;13.90;99.90;;;;;;492137;241;28661;-85
2023/05/11 08:50:10;;;;;;;2.50;2.17;;;13.80;99.90;;;;;;488990;241;28870;-84
2023/05/11 08:52:11;;;;;;;3.43;2.43;;;13.80;99.90;;;;;;483805;246;28545;-84
2023/05/11 08:54:13;;;;;;;2.80;2.50;;;13.70;99.90;;;;;;483433;246;28721;-82
2023/05/11 08:56:14;;;;;;;7.53;2.37;;;13.60;99.90;;;;;;483331;247;28800;-83
2023/05/11 08:58:18;;;;;;;2.97;2.17;;;13.40;99.90;;;;;;483370;247;29257;-84
2023/05/11 09:00:17;;;;;;;2.20;1.93;;;13.40;99.90;;;;;;483179;246;29126;-83
2023/05/11 09:04:28;;;;;;;3.87;2.23;;;13.30;99.90;;;;;;470307;242;28555;-84
2023/05/11 09:06:29;;;;;;;2.83;2.07;;;13.60;99.90;;;;;;463291;257;29018;-83
2023/05/11 09:08:30;;;;;;;2.53;2.33;;;13.60;99.90;;;;;;463289;257;29031;-83
2023/05/11 09:10:32;;;;;;;2.70;2.50;;;13.90;99.90;;;;;;463396;257;29038;-85
2023/05/11 09:12:33;;;;;;;2.30;2.10;;;14.20;99.90;;;;;;474860;235;28823;-84
2023/05/11 09:14:34;;;;;;;3.20;2.33;;;14.30;99.90;;;;;;500448;238;28680;-84
2023/05/11 09:16:35;;;;;;;2.40;2.03;;;14.20;99.90;;;;;;500482;238;28762;-85
2023/05/11 09:18:37;;;;;;;3.70;2.40;;;14.10;99.90;;;;;;500656;237;28871;-84
2023/05/11 09:20:38;;;;;;;2.60;2.20;;;14.30;99.90;;;;;;500604;238;30097;-85
2023/05/11 09:22:39;;;;;;;2.40;1.80;;;14.40;99.90;;;;;;500575;237;29229;-86
2023/05/11 09:24:40;;;;;;;2.53;2.30;;;14.40;99.90;;;;;;500549;238;29399;-82
2023/05/11 09:26:42;;;;;;;2.60;1.90;;;14.40;99.90;;;;;;500699;238;28744;-84
2023/05/11 09:28:43;;;;;;;2.50;2.30;;;14.40;99.90;;;;;;474935;234;29303;-82
2023/05/11 09:30:44;;;;;;;4.17;2.40;;;14.40;99.90;;;;;;472438;252;28876;-84
2023/05/11 09:32:46;;;;;;;2.80;2.00;;;14.60;99.90;;;;;;472344;250;28859;-85
2023/05/11 09:34:47;;;;;;;2.00;1.80;;;14.90;99.90;;;;;;469773;252;36360;-84
2023/05/11 09:36:48;;;;;;;1.93;1.73;;;14.90;99.90;;;;;;472415;252;27574;-83
2023/05/11 09:38:49;;;;;;;1.90;1.80;;;15.10;99.90;;;;;;472323;252;28857;-85
2023/05/11 09:40:51;;;;;;;4.50;1.90;;;15.10;99.90;;;;;;472327;252;28857;-85
2023/05/11 09:42:52;;;;;;;1.80;1.63;;;14.80;99.90;;;;;;472255;252;28894;-84
2023/05/11 09:44:53;;;;;;;2.20;2.00;;;14.90;99.90;;;;;;472199;252;29585;-83
2023/05/11 09:46:54;;;;;;;1.60;1.50;;;14.80;99.90;;;;;;472166;252;29484;-85
2023/05/11 09:48:56;;;;;;;2.50;2.30;;;14.90;99.90;;;;;;472264;252;29452;-83
2023/05/11 09:50:57;;;;;;;1.70;1.60;;;14.80;99.90;;;;;;472209;252;29499;-83
2023/05/11 09:52:58;;;;;;;2.00;1.90;;;15.00;99.90;;;;;;472129;252;28853;-84
2023/05/11 09:54:59;;;;;;;1.80;1.70;;;15.10;99.90;;;;;;472183;252;28850;-85
2023/05/11 09:57:00;;;;;;;2.37;2.13;;;15.10;99.90;;;;;;472202;252;29062;-85
2023/05/11 09:59:02;;;;;;;2.33;1.90;;;15.10;99.90;;;;;;472256;252;28912;-86
2023/05/11 10:01:03;;;;;;;2.20;1.80;;;15.10;99.90;;;;;;472281;252;28842;-86
2023/05/11 10:03:04;;;;;;;2.17;2.00;;;15.00;99.90;;;;;;472340;252;28870;-85
2023/05/11 10:05:06;;;;;;;2.10;1.70;;;14.90;99.90;;;;;;472286;250;29294;-83
2023/05/11 10:07:07;;;;;;;2.17;1.97;;;15.00;99.90;;;;;;472224;252;28848;-86
2023/05/11 10:09:08;;;;;;;3.47;1.80;;;15.10;99.90;;;;;;472279;252;28939;-86
2023/05/11 10:11:09;;;;;;;1.87;1.77;;;14.80;99.90;;;;;;472154;250;29439;-84
2023/05/11 10:13:11;;;;;;;1.80;1.70;;;14.70;99.90;;;;;;472326;250;29315;-86
2023/05/11 10:15:12;;;;;;;1.50;1.40;;;14.80;99.90;;;;;;472372;252;28889;-84
2023/05/11 10:17:13;;;;;;;1.83;1.73;;;15.00;99.90;;;;;;472356;252;29332;-86
2023/05/11 10:19:14;;;;;;;1.50;1.40;;;15.10;99.90;;;;;;472337;252;28869;-84
2023/05/11 10:21:16;;;;;;;1.80;1.70;;;15.10;99.90;;;;;;472465;252;28848;-84
2023/05/11 10:23:17;;;;;;;1.97;1.57;;;14.90;99.90;;;;;;472387;252;28843;-84
2023/05/11 10:25:18;;;;;;;3.63;1.53;;;14.80;99.90;;;;;;472385;250;28956;-85
2023/05/11 10:27:19;;;;;;;1.80;1.70;;;14.80;99.90;;;;;;472288;250;28902;-86
2023/05/11 10:29:21;;;;;;;2.70;1.77;;;14.80;99.90;;;;;;470562;252;28878;-84
2023/05/11 10:31:23;;;;;;;1.80;1.70;;;14.90;99.90;;;;;;469808;249;28947;-84
2023/05/11 10:33:23;;;;;;;2.20;1.63;;;14.90;99.90;;;;;;469940;254;29400;-84
2023/05/11 10:35:24;;;;;;;1.60;1.50;;;15.00;99.90;;;;;;469731;254;28958;-84
2023/05/11 10:37:26;;;;;;;2.47;1.90;;;15.10;99.90;;;;;;469722;254;28843;-87
2023/05/11 10:39:27;;;;;;;1.80;1.70;;;15.00;99.90;;;;;;469828;249;28842;-85
2023/05/11 10:41:28;;;;;;;1.57;1.47;;;15.00;99.90;;;;;;469830;254;28845;-85
2023/05/11 10:43:29;;;;;;;1.83;1.57;;;15.10;99.90;;;;;;469806;254;28942;-85
2023/05/11 10:45:31;;;;;;;1.50;1.40;;;15.10;99.90;;;;;;469682;254;28910;-84
2023/05/11 10:47:32;;;;;;;2.23;1.60;;;15.20;99.90;;;;;;469763;254;28887;-87
2023/05/11 10:49:33;;;;;;;1.90;1.80;;;15.10;99.90;;;;;;469800;254;28923;-86
2023/05/11 10:51:34;;;;;;;2.10;1.53;;;15.10;99.90;;;;;;469846;254;28843;-86
2023/05/11 10:53:36;;;;;;;2.33;1.67;;;14.90;99.90;;;;;;469754;254;29418;-84
2023/05/11 10:55:37;;;;;;;2.23;2.07;;;15.00;99.90;;;;;;469821;254;29510;-85
2023/05/11 10:57:38;;;;;;;3.23;1.40;;;15.10;99.90;;;;;;469810;254;29303;-85
2023/05/11 10:59:40;;;;;;;1.50;1.40;;;15.00;99.90;;;;;;469837;254;28962;-85
2023/05/11 11:01:41;;;;;;;1.77;1.67;;;15.10;99.90;;;;;;469714;254;28873;-85
2023/05/11 11:03:42;;;;;;;1.50;1.40;;;14.90;99.90;;;;;;469792;254;29014;-85
2023/05/11 11:05:44;;;;;;;1.90;1.80;;;15.10;99.90;;;;;;469639;254;28841;-87
2023/05/11 11:07:45;;;;;;;2.70;1.90;;;15.10;99.90;;;;;;469728;254;28952;-83
2023/05/11 11:09:46;;;;;;;2.30;1.40;;;15.00;99.90;;;;;;469827;254;28860;-85
2023/05/11 11:11:49;;;;;;;1.70;1.60;;;15.10;99.90;;;;;;469826;254;28953;-85
2023/05/11 11:13:48;;;;;;;1.80;1.70;;;15.20;99.90;;;;;;469507;254;28854;-87
2023/05/11 11:15:49;;;;;;;2.77;1.63;;;15.20;99.90;;;;;;469575;254;28840;-85
2023/05/11 11:17:51;;;;;;;1.47;1.37;;;15.50;99.90;;;;;;469618;254;29406;-86
2023/05/11 11:19:52;;;;;;;1.40;1.40;;;15.60;99.90;;;;;;469621;254;29443;-85
2023/05/11 11:21:53;;;;;;;3.00;1.33;;;15.80;99.90;;;;;;469659;254;29388;-84
2023/05/11 11:23:54;;;;;;;2.00;1.90;;;15.90;99.90;;;;;;469520;254;29301;-86
2023/05/11 11:25:56;;;;;;;1.67;1.57;;;16.00;99.90;;;;;;469523;254;28882;-86
2023/05/11 11:27:57;;;;;;;3.20;1.80;;;15.90;99.90;;;;;;469585;254;28855;-86
2023/05/11 11:29:58;;;;;;;1.77;1.50;;;15.80;99.90;;;;;;469525;254;28909;-87
2023/05/11 11:31:59;;;;;;;2.10;1.70;;;15.40;99.90;;;;;;469556;254;28880;-86
2023/05/11 11:34:02;;;;;;;5.67;1.70;;;15.30;99.90;;;;;;469596;254;28931;-84
2023/05/11 11:36:02;;;;;;;1.60;1.50;;;15.60;99.90;;;;;;469446;254;28905;-86
2023/05/11 11:38:04;;;;;;;1.50;1.40;;;15.70;99.90;;;;;;469601;254;28834;-85
2023/05/11 11:40:04;;;;;;;1.80;1.70;;;16.10;99.90;;;;;;469452;254;28859;-85
2023/05/11 11:42:06;;;;;;;1.40;1.30;;;16.20;99.90;;;;;;469527;254;28868;-86
2023/05/11 11:44:07;;;;;;;1.77;1.40;;;16.40;99.90;;;;;;469445;254;29294;-87
2023/05/11 11:46:08;;;;;;;1.30;1.30;;;16.50;99.90;;;;;;469361;254;29377;-85
2023/05/11 11:48:11;;;;;;;1.50;1.40;;;16.50;99.90;;;;;;469447;254;29424;-84
2023/05/11 11:50:12;;;;;;;1.67;1.57;;;16.20;99.90;;;;;;469332;254;28941;-87
2023/05/11 11:52:12;;;;;;;2.10;1.90;;;16.20;99.90;;;;;;469392;254;28794;-85
2023/05/11 11:54:14;;;;;;;2.83;1.90;;;16.60;99.90;;;;;;469402;254;28767;-83
2023/05/11 11:56:14;;;;;;;1.47;1.37;;;16.50;99.90;;;;;;469403;254;28855;-86
2023/05/11 11:58:16;;;;;;;1.50;1.40;;;16.50;99.90;;;;;;469460;247;29235;-86
2023/05/11 12:00:17;;;;;;;1.80;1.70;;;16.60;99.90;;;;;;469426;254;28888;-86
2023/05/11 12:02:18;;;;;;;2.87;1.30;;;16.90;99.90;;;;;;469378;254;28803;-86
2023/05/11 12:04:20;;;;;;;1.50;1.40;;;17.10;99.90;;;;;;469313;254;29215;-84
2023/05/11 12:06:21;;;;;;;1.93;1.43;;;17.00;99.90;;;;;;469254;254;29310;-86
2023/05/11 12:08:22;;;;;;;1.93;1.60;;;17.10;99.90;;;;;;469264;254;29366;-84
2023/05/11 12:10:23;;;;;;;1.67;1.57;;;17.00;99.90;;;;;;469275;254;28756;-88
2023/05/11 12:12:25;;;;;;;2.10;1.40;;;17.10;99.90;;;;;;469322;254;28839;-84
2023/05/11 12:14:26;;;;;;;7.57;2.00;;;17.20;99.90;;;;;;469297;254;28757;-86
2023/05/11 12:16:27;;;;;;;6.97;2.13;;;17.10;99.90;;;;;;469266;254;28812;-88
2023/05/11 12:18:28;;;;;;;4.03;1.40;;;17.00;99.90;;;;;;469376;254;28823;-83
2023/05/11 12:20:30;;;;;;;1.90;1.40;;;16.90;99.90;;;;;;469309;254;28819;-87
2023/05/11 12:22:31;;;;;;;1.43;1.33;;;16.90;99.90;;;;;;469346;254;28863;-87
2023/05/11 12:24:32;;;;;;;1.47;1.37;;;16.90;99.90;;;;;;469236;254;28846;-87
2023/05/11 12:26:33;;;;;;;1.30;1.20;;;17.00;99.90;;;;;;469313;254;28757;-86
2023/05/11 12:28:35;;;;;;;1.53;1.20;;;17.20;99.90;;;;;;469259;254;28832;-86
2023/05/11 12:30:36;;;;;;;2.20;1.47;;;17.30;99.20;;;;;;469269;254;29356;-86